Terminal Aerodrome Forecast
Issued by NWS Boston, MA

Home | Current Version | Previous Version | Text Only | Print | Product List | Glossary On
Versions: 1 2 3 4 5 6 7 8 9 10 11 12 13 14 15 16 17 18 19 20 21 22 23 24 25 26 27 28 29 30 31 32 33 34 35 36 37 38 39 40 41 42 43 44
000
FTUS41 KBOX 232057 AAA
TAFBDL
TAF AMD
KBDL 232057Z 2321/2424 20010KT P6SM BKN040
     FM232300 21013KT P6SM VCTS BKN040CB
     FM240100 20010KT 5SM RA BKN040
     FM240600 VRB04KT 5SM BR OVC040
     FM241100 35007KT 5SM BR BKN050
     FM241400 35007KT P6SM BKN040=

USA.gov is the U.S. government's official web portal to all federal, state and local government web resources and services.